createdAt,value
2018-03-01T00:04:48.070Z,-9.90
2018-03-01T00:07:14.579Z,-9.90
2018-03-01T00:09:41.149Z,-9.90
2018-03-01T00:12:07.652Z,-9.90
2018-03-01T00:14:34.196Z,-10.00
2018-03-01T00:17:01.468Z,-10.00
2018-03-01T00:19:27.979Z,-10.00
2018-03-01T00:21:54.515Z,-10.00
2018-03-01T00:24:21.027Z,-10.00
2018-03-01T00:26:47.596Z,-10.00
2018-03-01T00:29:14.069Z,-10.00
2018-03-01T00:31:41.282Z,-10.00
2018-03-01T00:34:07.853Z,-10.00
2018-03-01T00:36:34.447Z,-10.00
2018-03-01T00:39:00.937Z,-10.00
2018-03-01T00:41:28.148Z,-10.00
2018-03-01T00:43:54.612Z,-9.90
2018-03-01T00:46:21.811Z,-9.90
2018-03-01T00:48:48.319Z,-9.90
2018-03-01T00:51:14.770Z,-9.90
2018-03-01T00:53:41.282Z,-9.90
2018-03-01T00:56:07.763Z,-9.80
2018-03-01T00:58:34.236Z,-9.90
2018-03-01T01:01:01.554Z,-9.90
2018-03-01T01:03:28.033Z,-9.90
2018-03-01T01:05:55.376Z,-9.70
2018-03-01T01:08:22.611Z,-9.80
2018-03-01T01:10:49.083Z,-9.80
2018-03-01T01:13:15.642Z,-9.80
2018-03-01T01:15:42.215Z,-9.70
2018-03-01T01:18:08.753Z,-9.80
2018-03-01T01:20:35.236Z,-9.70
2018-03-01T01:23:01.684Z,-9.70
2018-03-01T01:25:28.130Z,-9.90
2018-03-01T01:27:54.645Z,-9.70
2018-03-01T01:30:21.115Z,-9.70
2018-03-01T01:32:47.581Z,-9.70
2018-03-01T01:35:14.895Z,-9.70
2018-03-01T01:37:41.404Z,-9.70
2018-03-01T01:40:07.883Z,-9.80
2018-03-01T01:42:34.333Z,-9.70
2018-03-01T01:45:01.544Z,-9.70
2018-03-01T01:47:28.043Z,-9.80
2018-03-01T01:49:54.513Z,-9.80
2018-03-01T01:52:20.950Z,-9.80
2018-03-01T01:54:48.604Z,-9.80
2018-03-01T01:57:15.176Z,-9.80
2018-03-01T01:59:42.402Z,-9.80
2018-03-01T02:02:08.847Z,-9.90
2018-03-01T02:04:35.406Z,-9.80
2018-03-01T02:07:02.684Z,-9.80
2018-03-01T02:09:29.138Z,-9.90
2018-03-01T02:11:55.676Z,-9.80
2018-03-01T02:14:22.093Z,-9.80
2018-03-01T02:16:48.575Z,-9.80
2018-03-01T02:19:15.039Z,-9.80
2018-03-01T02:21:41.567Z,-9.80
2018-03-01T02:24:08.783Z,-9.90
2018-03-01T02:26:35.250Z,-9.90
2018-03-01T02:29:01.763Z,-9.80
2018-03-01T02:31:29.040Z,-9.90
2018-03-01T02:33:55.533Z,-9.90
2018-03-01T02:36:31.099Z,-9.90
2018-03-01T02:38:57.563Z,-9.90
2018-03-01T02:41:24.072Z,-9.90
2018-03-01T02:43:51.268Z,-9.80
2018-03-01T02:46:17.827Z,-9.80
2018-03-01T02:48:44.268Z,-9.80
2018-03-01T02:51:10.780Z,-9.80
2018-03-01T02:53:37.279Z,-9.70
2018-03-01T02:56:04.486Z,-9.80
2018-03-01T02:58:30.986Z,-9.80
2018-03-01T03:00:57.475Z,-9.70
2018-03-01T03:03:24.054Z,-9.80
2018-03-01T03:05:50.514Z,-9.70
2018-03-01T03:08:16.953Z,-9.70
2018-03-01T03:10:43.438Z,-9.70
2018-03-01T03:13:10.134Z,-9.70
2018-03-01T03:15:36.584Z,-9.70
2018-03-01T03:18:03.111Z,-9.70
2018-03-01T03:20:29.663Z,-9.80
2018-03-01T03:22:56.852Z,-9.70
2018-03-01T03:25:23.458Z,-9.70
2018-03-01T03:27:50.754Z,-9.70
2018-03-01T03:30:17.188Z,-9.80
2018-03-01T03:32:43.762Z,-9.70
2018-03-01T03:35:10.202Z,-9.70
2018-03-01T03:37:37.426Z,-9.70
2018-03-01T03:40:03.944Z,-9.70
2018-03-01T03:42:30.410Z,-9.70
2018-03-01T03:44:56.997Z,-9.70
2018-03-01T03:47:23.464Z,-9.70
2018-03-01T03:49:49.901Z,-9.70
2018-03-01T03:52:16.318Z,-9.70
2018-03-01T03:54:42.830Z,-9.70
2018-03-01T03:57:09.351Z,-9.70
2018-03-01T03:59:35.971Z,-9.70
2018-03-01T04:02:03.196Z,-9.70
2018-03-01T04:04:29.694Z,-9.70
2018-03-01T04:06:56.139Z,-9.70
2018-03-01T04:09:22.613Z,-9.50
2018-03-01T04:11:49.172Z,-9.70
2018-03-01T04:14:16.372Z,-9.70
2018-03-01T04:16:42.841Z,-9.70
2018-03-01T04:19:10.024Z,-9.70
2018-03-01T04:21:36.614Z,-9.70
2018-03-01T04:24:03.060Z,-9.70
2018-03-01T04:26:30.330Z,-9.70
2018-03-01T04:28:56.859Z,-9.70
2018-03-01T04:31:23.325Z,-9.60
2018-03-01T04:33:49.856Z,-9.60
2018-03-01T04:36:16.358Z,-9.60
2018-03-01T04:38:43.621Z,-9.70
2018-03-01T04:41:10.122Z,-9.80
2018-03-01T04:43:36.599Z,-9.70
2018-03-01T04:46:03.248Z,-9.70
2018-03-01T04:48:29.698Z,-9.70
2018-03-01T04:50:56.274Z,-9.70
2018-03-01T04:53:22.689Z,-9.60
2018-03-01T04:55:49.167Z,-9.70
2018-03-01T04:58:15.627Z,-9.60
2018-03-01T05:00:42.063Z,-9.60
2018-03-01T05:03:08.523Z,-9.60
2018-03-01T05:05:35.042Z,-9.60
2018-03-01T05:08:01.511Z,-9.60
2018-03-01T05:10:28.729Z,-9.60
2018-03-01T05:12:55.399Z,-9.60
2018-03-01T05:15:22.658Z,-9.60
2018-03-01T05:17:49.947Z,-9.60
2018-03-01T05:20:16.401Z,-9.60
2018-03-01T05:22:43.600Z,-9.60
2018-03-01T05:25:10.905Z,-9.60
2018-03-01T05:27:37.498Z,-9.60
2018-03-01T05:30:04.939Z,-9.50
2018-03-01T05:32:32.151Z,-9.50
2018-03-01T05:34:58.683Z,-9.60
2018-03-01T05:37:25.163Z,-9.60
2018-03-01T05:39:52.421Z,-9.60
2018-03-01T05:42:18.857Z,-9.60
2018-03-01T05:44:46.083Z,-9.60
2018-03-01T05:47:12.556Z,-9.50
2018-03-01T05:49:39.020Z,-9.60
2018-03-01T05:52:05.573Z,-9.50
2018-03-01T05:54:32.043Z,-9.60
2018-03-01T05:56:59.299Z,-9.60
2018-03-01T05:59:25.880Z,-9.60
2018-03-01T06:01:52.375Z,-9.50
2018-03-01T06:04:18.844Z,-9.60
2018-03-01T06:06:45.384Z,-9.50
2018-03-01T06:09:11.851Z,-9.50
2018-03-01T06:11:38.287Z,-9.60
2018-03-01T06:14:05.960Z,-9.60
2018-03-01T06:16:32.847Z,-9.60
2018-03-01T06:18:59.433Z,-9.40
2018-03-01T06:21:25.826Z,-9.40
2018-03-01T06:23:52.376Z,-9.50
2018-03-01T06:26:18.797Z,-9.30
2018-03-01T06:28:45.247Z,-9.20
2018-03-01T06:31:11.781Z,-9.30
2018-03-01T06:33:38.239Z,-9.40
2018-03-01T06:36:05.576Z,-9.30
2018-03-01T06:38:32.041Z,-9.40
2018-03-01T06:40:58.486Z,-9.40
2018-03-01T06:43:24.917Z,-9.40
2018-03-01T06:45:51.494Z,-9.40
2018-03-01T06:48:17.957Z,-9.30
2018-03-01T06:50:45.190Z,-9.30
2018-03-01T06:53:11.674Z,-9.40
2018-03-01T06:55:38.107Z,-9.40
2018-03-01T06:58:04.575Z,-9.40
2018-03-01T07:00:31.070Z,-9.30
2018-03-01T07:02:57.525Z,-9.40
2018-03-01T07:05:23.999Z,-9.30
2018-03-01T07:07:50.489Z,-9.30
2018-03-01T07:10:16.992Z,-9.30
2018-03-01T07:12:44.243Z,-9.20
2018-03-01T07:15:11.437Z,-9.20
2018-03-01T07:17:37.925Z,-9.20
2018-03-01T07:20:04.447Z,-9.10
2018-03-01T07:22:31.660Z,-9.10
2018-03-01T07:24:58.227Z,-9.10
2018-03-01T07:27:24.660Z,-9.00
2018-03-01T07:29:51.140Z,-9.10
2018-03-01T07:32:17.640Z,-9.00
2018-03-01T07:34:44.916Z,-9.00
2018-03-01T07:37:11.970Z,-9.00
2018-03-01T07:39:38.427Z,-8.90
2018-03-01T07:42:04.876Z,-8.90
2018-03-01T07:44:32.138Z,-8.90
2018-03-01T07:46:58.570Z,-8.90
2018-03-01T07:49:25.111Z,-9.00
2018-03-01T07:51:51.700Z,-8.70
2018-03-01T07:54:18.157Z,-8.70
2018-03-01T07:56:44.604Z,-8.90
2018-03-01T07:59:11.070Z,-8.90
2018-03-01T08:01:38.326Z,-8.80
2018-03-01T08:04:05.559Z,-8.80
2018-03-01T08:06:32.051Z,-8.80
2018-03-01T08:08:58.525Z,-8.70
2018-03-01T08:11:25.738Z,-8.50
2018-03-01T08:13:52.199Z,-8.60
2018-03-01T08:16:18.864Z,-8.50
2018-03-01T08:18:46.111Z,-8.60
2018-03-01T08:21:13.317Z,-8.60
2018-03-01T08:23:39.766Z,-8.60
2018-03-01T08:26:06.300Z,-8.70
2018-03-01T08:28:32.784Z,-8.50
2018-03-01T08:30:59.425Z,-8.40
2018-03-01T08:33:25.936Z,-8.20
2018-03-01T08:35:53.187Z,-8.30
2018-03-01T08:38:20.404Z,-8.30
2018-03-01T08:40:47.592Z,-8.10
2018-03-01T08:43:14.987Z,-8.10
2018-03-01T08:45:41.421Z,-8.10
2018-03-01T08:48:07.892Z,-8.20
2018-03-01T08:50:34.334Z,-8.10
2018-03-01T08:53:00.783Z,-8.20
2018-03-01T08:55:28.010Z,-7.90
2018-03-01T08:57:54.528Z,-7.90
2018-03-01T09:00:21.308Z,-8.00
2018-03-01T09:02:48.464Z,-7.80
2018-03-01T09:05:15.686Z,-7.70
2018-03-01T09:07:42.132Z,-7.70
2018-03-01T09:10:08.662Z,-7.40
2018-03-01T09:12:35.119Z,-7.10
2018-03-01T09:15:02.316Z,-7.10
2018-03-01T09:17:28.947Z,-7.20
2018-03-01T09:19:55.364Z,-6.80
2018-03-01T09:22:21.863Z,-6.60
2018-03-01T09:24:49.081Z,-6.60
2018-03-01T09:27:15.559Z,-6.60
2018-03-01T09:29:42.095Z,-6.50
2018-03-01T09:32:08.558Z,-6.30
2018-03-01T09:34:35.115Z,-6.50
2018-03-01T09:37:01.587Z,-6.40
2018-03-01T09:39:28.799Z,-5.80
2018-03-01T09:41:55.279Z,-5.90
2018-03-01T09:44:22.601Z,-6.40
2018-03-01T09:46:49.039Z,-6.40
2018-03-01T09:49:15.549Z,-5.90
2018-03-01T09:51:42.067Z,-6.00
2018-03-01T09:54:08.603Z,-6.10
2018-03-01T09:56:35.033Z,-5.90
2018-03-01T09:59:01.480Z,-5.60
2018-03-01T10:01:27.987Z,-5.20
2018-03-01T10:03:54.522Z,-5.20
2018-03-01T10:06:20.999Z,-5.40
2018-03-01T10:08:47.451Z,-5.60
2018-03-01T10:11:13.994Z,-5.30
2018-03-01T10:13:41.231Z,-5.60
2018-03-01T10:16:07.852Z,-5.60
2018-03-01T10:18:34.322Z,-5.70
2018-03-01T10:21:01.495Z,-5.70
2018-03-01T10:23:28.015Z,-5.70
2018-03-01T10:25:55.172Z,-5.40
2018-03-01T10:28:22.403Z,-5.20
2018-03-01T10:30:48.929Z,-5.20
2018-03-01T10:33:15.407Z,-5.00
2018-03-01T10:35:41.888Z,-5.00
2018-03-01T10:38:08.381Z,-4.60
2018-03-01T10:40:34.874Z,-4.60
2018-03-01T10:43:02.095Z,-4.70
2018-03-01T10:45:28.733Z,-4.70
2018-03-01T10:47:55.203Z,-4.40
2018-03-01T10:50:22.415Z,-4.20
2018-03-01T10:52:48.935Z,-4.20
2018-03-01T10:55:15.388Z,-4.60
2018-03-01T10:57:41.964Z,-4.40
2018-03-01T11:00:08.424Z,-3.90
2018-03-01T11:02:34.911Z,-3.50
2018-03-01T11:05:01.348Z,-3.50
2018-03-01T11:07:27.839Z,-3.70
2018-03-01T11:09:54.298Z,-3.40
2018-03-01T11:12:20.900Z,-2.90
2018-03-01T11:14:47.350Z,-2.60
2018-03-01T11:17:13.923Z,-2.80
2018-03-01T11:19:40.380Z,-2.80
2018-03-01T11:22:07.643Z,-3.00
2018-03-01T11:24:34.245Z,-3.00
2018-03-01T11:27:01.504Z,-2.50
2018-03-01T11:29:28.735Z,-2.70
2018-03-01T11:31:55.235Z,-2.70
2018-03-01T11:34:21.745Z,-2.80
2018-03-01T11:36:48.268Z,-2.40
2018-03-01T11:39:15.463Z,-2.20
2018-03-01T11:41:42.024Z,-2.20
2018-03-01T11:44:08.504Z,-2.50
2018-03-01T11:46:35.135Z,-2.30
2018-03-01T11:49:02.365Z,-2.10
2018-03-01T11:51:28.829Z,-2.10
2018-03-01T11:53:55.426Z,-1.90
2018-03-01T11:56:21.898Z,-1.70
2018-03-01T11:58:48.378Z,-2.10
2018-03-01T12:01:14.824Z,-2.20
2018-03-01T12:03:41.333Z,-2.10
2018-03-01T12:06:07.787Z,-2.10
2018-03-01T12:08:34.355Z,-2.20
2018-03-01T12:11:01.616Z,-2.10
2018-03-01T12:13:28.075Z,-2.10
2018-03-01T12:15:54.628Z,-2.50
2018-03-01T12:18:21.076Z,-2.10
2018-03-01T12:20:47.636Z,-1.70
2018-03-01T12:23:14.889Z,-2.00
2018-03-01T12:25:41.415Z,-2.00
2018-03-01T12:28:07.931Z,-1.80
2018-03-01T12:30:34.431Z,-1.80
2018-03-01T12:33:00.907Z,-2.30
2018-03-01T12:35:27.521Z,-1.90
2018-03-01T12:37:57.743Z,-1.80
2018-03-01T12:40:24.234Z,-1.90
2018-03-01T12:42:50.757Z,-2.00
2018-03-01T12:45:17.988Z,-1.90
2018-03-01T12:47:44.511Z,-1.90
2018-03-01T12:50:11.008Z,-2.10
2018-03-01T12:52:37.475Z,-1.90
2018-03-01T12:55:03.950Z,-2.00
2018-03-01T12:57:31.230Z,-1.70
2018-03-01T12:59:57.726Z,-1.80
2018-03-01T13:02:24.207Z,-1.80
2018-03-01T13:04:51.541Z,-1.50
2018-03-01T13:07:18.044Z,-1.60
2018-03-01T13:09:44.468Z,-1.60
2018-03-01T13:12:11.842Z,-1.50
2018-03-01T13:14:39.043Z,-2.80
2018-03-01T13:17:05.668Z,-2.80
2018-03-01T13:19:32.248Z,-3.20
2018-03-01T13:21:58.742Z,-3.20
2018-03-01T13:24:25.265Z,-3.30
2018-03-01T13:26:52.642Z,-3.40
2018-03-01T13:29:19.116Z,-3.40
2018-03-01T13:31:56.510Z,-3.40
2018-03-01T13:34:23.723Z,-3.30
2018-03-01T13:36:50.284Z,-3.30
2018-03-01T13:39:16.827Z,-3.20
2018-03-01T13:41:43.276Z,-3.20
2018-03-01T13:44:10.496Z,-2.90
2018-03-01T13:46:38.847Z,-2.90
2018-03-01T13:49:05.377Z,-2.80
2018-03-01T13:51:38.776Z,-2.80
2018-03-01T13:54:06.072Z,-3.00
2018-03-01T13:56:32.479Z,-3.00
2018-03-01T13:58:58.988Z,-3.00
2018-03-01T14:01:25.442Z,-3.10
2018-03-01T14:03:52.831Z,-3.00
2018-03-01T14:06:26.961Z,-3.00
2018-03-01T14:08:56.999Z,-2.80
2018-03-01T14:11:23.493Z,-2.80
2018-03-01T14:13:49.949Z,-3.00
2018-03-01T14:16:17.176Z,-2.80
2018-03-01T14:22:08.348Z,-3.00
2018-03-01T14:24:36.666Z,-3.00
2018-03-01T14:27:04.069Z,-3.00
2018-03-01T14:29:33.464Z,-2.90
2018-03-01T14:32:00.680Z,-2.80
2018-03-01T14:34:27.172Z,-2.80
2018-03-01T14:36:53.700Z,-2.70
2018-03-01T14:39:20.310Z,-3.00
2018-03-01T14:41:47.561Z,-3.10
2018-03-01T14:44:14.806Z,-3.10
2018-03-01T14:46:42.140Z,-3.10
2018-03-01T14:49:08.621Z,-3.10
2018-03-01T14:51:35.155Z,-3.00
2018-03-01T14:54:02.407Z,-3.10
2018-03-01T14:56:36.716Z,-3.10
2018-03-01T14:59:03.926Z,-3.00
2018-03-01T15:01:30.475Z,-3.10
2018-03-01T15:03:56.970Z,-3.00
2018-03-01T15:06:23.458Z,-2.90
2018-03-01T15:08:50.634Z,-3.00
2018-03-01T15:11:17.127Z,-3.00
2018-03-01T15:13:43.598Z,-2.80
2018-03-01T15:16:10.059Z,-2.90
2018-03-01T15:18:36.576Z,-2.90
2018-03-01T15:21:03.050Z,-3.00
2018-03-01T15:23:29.593Z,-2.90
2018-03-01T15:25:56.144Z,-2.90
2018-03-01T15:28:23.387Z,-3.00
2018-03-01T15:30:49.931Z,-3.10
2018-03-01T15:33:16.429Z,-3.00
2018-03-01T15:35:43.004Z,-3.00
2018-03-01T15:38:09.515Z,-3.00
2018-03-01T15:40:36.015Z,-3.00
2018-03-01T15:43:02.553Z,-3.00
2018-03-01T15:45:28.988Z,-3.10
2018-03-01T15:47:55.525Z,-3.20
2018-03-01T15:50:22.643Z,-3.20
2018-03-01T15:52:49.977Z,-3.10
2018-03-01T15:55:17.229Z,-3.10
2018-03-01T15:57:43.736Z,-3.10
2018-03-01T16:00:10.314Z,-3.10
2018-03-01T16:02:36.740Z,-3.10
2018-03-01T16:05:04.022Z,-3.20
2018-03-01T16:07:30.651Z,-3.20
2018-03-01T16:09:57.166Z,-3.20
2018-03-01T16:12:24.350Z,-3.10
2018-03-01T16:14:50.923Z,-3.10
2018-03-01T16:17:17.454Z,-3.10
2018-03-01T16:19:43.962Z,-3.10
2018-03-01T16:22:10.468Z,-3.10
2018-03-01T16:24:37.694Z,-3.20
2018-03-01T16:27:04.924Z,-3.20
2018-03-01T16:29:31.436Z,-3.20
2018-03-01T16:31:57.919Z,-3.00
2018-03-01T16:34:24.494Z,-3.10
2018-03-01T16:36:51.149Z,-3.20
2018-03-01T16:39:17.661Z,-3.20
2018-03-01T16:41:44.194Z,-3.20
2018-03-01T16:44:10.764Z,-3.20
2018-03-01T16:46:38.046Z,-3.20
2018-03-01T16:49:04.512Z,-3.20
2018-03-01T16:51:31.112Z,-3.20
2018-03-01T16:53:57.627Z,-3.20
2018-03-01T16:56:24.115Z,-3.20
2018-03-01T16:58:51.347Z,-3.20
2018-03-01T17:01:17.848Z,-3.20
2018-03-01T17:03:45.388Z,-3.20
2018-03-01T17:06:11.896Z,-3.20
2018-03-01T17:08:38.436Z,-3.20
2018-03-01T17:11:04.904Z,-3.30
2018-03-01T17:13:31.429Z,-3.30
2018-03-01T17:15:57.887Z,-3.30
2018-03-01T17:18:24.382Z,-3.40
2018-03-01T17:20:50.886Z,-3.50
2018-03-01T17:23:18.089Z,-3.50
2018-03-01T17:25:44.635Z,-3.50
2018-03-01T17:28:11.094Z,-3.50
2018-03-01T17:30:38.437Z,-3.50
2018-03-01T17:33:04.866Z,-3.50
2018-03-01T17:35:31.458Z,-3.60
2018-03-01T17:37:58.131Z,-3.60
2018-03-01T17:40:24.589Z,-3.60
2018-03-01T17:42:51.177Z,-3.70
2018-03-01T17:45:17.671Z,-3.70
2018-03-01T17:47:44.258Z,-3.70
2018-03-01T17:50:10.714Z,-3.80
2018-03-01T17:52:37.284Z,-3.80
2018-03-01T17:55:04.539Z,-3.90
2018-03-01T17:57:31.794Z,-3.90
2018-03-01T17:59:59.231Z,-3.90
2018-03-01T18:02:26.475Z,-4.00
2018-03-01T18:04:52.988Z,-4.00
2018-03-01T18:07:20.272Z,-3.90
2018-03-01T18:09:46.816Z,-4.00
2018-03-01T18:12:13.330Z,-4.00
2018-03-01T18:14:40.656Z,-4.00
2018-03-01T18:17:07.101Z,-4.00
2018-03-01T18:19:33.603Z,-3.90
2018-03-01T18:22:00.125Z,-3.90
2018-03-01T18:24:26.635Z,-3.90
2018-03-01T18:26:53.119Z,-3.90
2018-03-01T18:29:19.575Z,-3.90
2018-03-01T18:31:46.830Z,-3.90
2018-03-01T18:34:13.483Z,-3.90
2018-03-01T18:36:40.010Z,-3.80
2018-03-01T18:39:06.586Z,-3.80
2018-03-01T18:41:33.224Z,-3.80
2018-03-01T18:43:59.714Z,-3.80
2018-03-01T18:46:26.182Z,-3.80
2018-03-01T18:48:53.462Z,-3.80
2018-03-01T18:51:19.909Z,-3.80
2018-03-01T18:53:46.439Z,-3.80
2018-03-01T18:56:13.004Z,-3.90
2018-03-01T18:58:39.566Z,-3.70
2018-03-01T19:01:06.049Z,-3.70
2018-03-01T19:03:32.473Z,-3.80
2018-03-01T19:05:59.004Z,-3.80
2018-03-01T19:08:25.989Z,-3.80
2018-03-01T19:10:52.544Z,-3.80
2018-03-01T19:13:20.238Z,-3.80
2018-03-01T19:15:46.924Z,-3.80
2018-03-01T19:18:13.609Z,-3.90
2018-03-01T19:20:40.162Z,-3.90
2018-03-01T19:23:06.679Z,-3.90
2018-03-01T19:25:33.177Z,-3.90
2018-03-01T19:27:59.675Z,-3.90
2018-03-01T19:30:26.212Z,-4.00
2018-03-01T19:32:52.709Z,-4.00
2018-03-01T19:35:20.013Z,-4.00
2018-03-01T19:37:46.533Z,-4.00
2018-03-01T19:40:13.032Z,-4.00
2018-03-01T19:42:40.536Z,-4.10
2018-03-01T19:45:07.252Z,-4.10
2018-03-01T19:47:33.844Z,-4.10
2018-03-01T19:50:01.126Z,-4.00
2018-03-01T19:52:27.677Z,-4.10
2018-03-01T19:54:54.228Z,-4.10
2018-03-01T19:57:21.029Z,-4.10
2018-03-01T19:59:48.637Z,-4.20
2018-03-01T20:02:15.231Z,-4.20
2018-03-01T20:04:42.449Z,-4.10
2018-03-01T20:07:09.017Z,-4.10
2018-03-01T20:09:36.270Z,-4.10
2018-03-01T20:12:03.669Z,-4.20
2018-03-01T20:14:30.969Z,-4.20
2018-03-01T20:16:58.319Z,-4.20
2018-03-01T20:19:25.702Z,-4.20
2018-03-01T20:21:52.602Z,-4.20
2018-03-01T20:24:19.123Z,-4.30
2018-03-01T20:26:45.570Z,-4.30
2018-03-01T20:29:12.315Z,-4.20
2018-03-01T20:31:38.947Z,-4.20
2018-03-01T20:34:05.588Z,-4.20
2018-03-01T20:36:32.201Z,-4.30
2018-03-01T20:38:58.663Z,-4.30
2018-03-01T20:41:25.939Z,-4.30
2018-03-01T20:43:52.484Z,-4.30
2018-03-01T20:46:19.008Z,-4.40
2018-03-01T20:48:45.543Z,-4.40
2018-03-01T20:51:12.133Z,-4.40
2018-03-01T20:53:39.459Z,-4.40
2018-03-01T20:56:05.931Z,-4.50
2018-03-01T20:58:32.523Z,-4.40
2018-03-01T21:00:59.079Z,-4.50
2018-03-01T21:03:25.559Z,-4.60
2018-03-01T21:05:52.914Z,-4.50
2018-03-01T21:08:20.171Z,-4.60
2018-03-01T21:10:48.752Z,-4.60
2018-03-01T21:13:16.097Z,-4.60
2018-03-01T21:15:42.523Z,-4.60
2018-03-01T21:18:09.765Z,-4.70
2018-03-01T21:20:36.343Z,-4.70
2018-03-01T21:23:02.896Z,-4.70
2018-03-01T21:25:29.477Z,-4.70
2018-03-01T21:27:56.010Z,-4.70
2018-03-01T21:30:22.645Z,-4.80
2018-03-01T21:32:49.175Z,-4.80
2018-03-01T21:35:21.917Z,-4.90
2018-03-01T21:37:48.844Z,-4.90
2018-03-01T21:43:04.966Z,-5.00
2018-03-01T21:45:32.049Z,-5.00
2018-03-01T21:47:58.519Z,-5.00
2018-03-01T21:50:25.004Z,-5.00
2018-03-01T21:52:51.612Z,-5.00
2018-03-01T21:55:18.115Z,-5.10
2018-03-01T21:57:44.607Z,-5.10
2018-03-01T22:00:11.183Z,-5.10
2018-03-01T22:02:37.706Z,-5.10
2018-03-01T22:05:04.938Z,-5.10
2018-03-01T22:07:31.403Z,-5.20
2018-03-01T22:09:57.824Z,-5.20
2018-03-01T22:12:24.302Z,-5.20
2018-03-01T22:14:50.935Z,-5.20
2018-03-01T22:17:17.479Z,-5.30
2018-03-01T22:19:44.751Z,-5.30
2018-03-01T22:22:11.351Z,-5.30
2018-03-01T22:24:37.842Z,-5.30
2018-03-01T22:27:04.312Z,-5.40
2018-03-01T22:29:31.616Z,-5.40
2018-03-01T22:31:58.043Z,-5.40
2018-03-01T22:34:24.700Z,-5.40
2018-03-01T22:36:51.240Z,-5.40
2018-03-01T22:39:17.720Z,-5.50
2018-03-01T22:42:01.050Z,-5.50
2018-03-01T22:47:09.972Z,-5.50
2018-03-01T22:49:36.457Z,-5.90
2018-03-01T22:52:03.088Z,-5.60
2018-03-01T22:54:29.565Z,-5.60
2018-03-01T22:56:56.083Z,-5.60
2018-03-01T22:59:22.511Z,-5.60
2018-03-01T23:01:48.992Z,-5.60
2018-03-01T23:04:16.194Z,-5.60
2018-03-01T23:06:42.661Z,-5.60
2018-03-01T23:09:09.293Z,-5.40
2018-03-01T23:11:35.801Z,-5.60
2018-03-01T23:14:02.289Z,-5.70
2018-03-01T23:16:29.654Z,-5.80
2018-03-01T23:18:56.203Z,-5.80
2018-03-01T23:21:22.694Z,-5.90
2018-03-01T23:23:49.204Z,-5.90
2018-03-01T23:26:15.721Z,-6.00
2018-03-01T23:28:42.262Z,-6.00
2018-03-01T23:31:09.725Z,-6.00
2018-03-01T23:33:36.174Z,-6.00
2018-03-01T23:36:02.802Z,-6.00
2018-03-01T23:38:29.267Z,-6.10
2018-03-01T23:40:56.503Z,-6.10
2018-03-01T23:43:23.017Z,-6.20
2018-03-01T23:45:49.499Z,-6.20
2018-03-01T23:48:16.709Z,-6.20
2018-03-01T23:50:43.239Z,-6.20
2018-03-01T23:56:05.457Z,-6.20
2018-03-01T23:58:31.920Z,-6.20
